Etusivu
METAR-TAF:

METAR-TAF

Lentoasemat :

Pantelleria, Italia

Leveyspiiri: 36-49N, Pituuspiiri: 011-58E, korkeus merenpinnasta: 191 m

Tämänhetkinen sää

Tämä raportti tehtiin 5 tuntia ja 23 minuuttia sitten, kello 17.50 UTC
Tuuli 8 kn pohjoisen/luoteesta
Lämpötila 13°C
Kosteus 67%
Ilmanpaine 1013 hPa
Näkyvyys 10 km tai enemmän
ei pilviä alle 1500 m:ssä eikä cumulonimbus-pilviä

METAR: LICG 231750Z 33008KT CAVOK 13/07 Q1013

Aika: 01:13 (23:13 UTC)

Sääennuste

Tämä raportti tehtiin 9 tuntia ja 13 minuuttia sitten, kello 14.00 UTC
Ennuste voimassa 23. päivästä klo 15 UTC - 23. päivään klo 24 UTC
Tuuli 15 kn pohjoisen/luoteesta
Näkyvyys 10 km tai enemmän
Hajanaisia pilviä 1500 ft:n korkeudessa
Tulossa
23. päivästä klo 21 UTC - 23. päivään klo 23 UTC
Tuuli 13 kn lännestä

TAF: LICG 231400Z 2315/2324 34015KT 9999 SCT015 BECMG 2321/2323 27013KT

Säähavainnot ja -ennusteet yli 4000 lentoasemalta (METAR- ja TAF-raportit).

Käytössä olevat sääasemat on merkitty karttaan keltaisilla ja punaisilla pisteillä.

Aseta hiiri pisteen päälle nähdäksesi sääaseman nimen.

Klikkaa sitten nähdäksesi säähavainnot ja -ennusteet.

Kartan vaihtaminen: klikkaa mustalla rastilla varustettuja vihreitä pisteitä, niin voit zoomata sisään; viivalla varustettua vihreää pistettä, niin voit zoomata ulos tai vihreitä nuolia, niin pääset viereisille kartoille.


METAR-TAF: